Metlakatla, AK

2:58 PM AKST on December 03, 2016 (GMT -0900)
Annette Island | | Change Station
Active Advisory: Winter Weather Advisory

Elev 112 ft 55.04 °N, 131.57 °W | Updated 5 minutes ago

Light Snow
Light Snow
36 °F
Feels Like 31 °F
N
6
Wind Variable Wind from Variable
Gusts 20 mph

Today
High -- | Low -- °F
--% Chance of Precip.
Yesterday
High -- | Low -- °F
Precip. -- in
Pressure 29.89 in
Visibility 5.0 miles
Clouds Few 1100 ft
Mostly Cloudy 1700 ft
Overcast 5500 ft
Windchill 31 °F
Dew Point 30 °F
Humidity 79%
Rainfall 0.01 in
Snow Depth Not available.
7:51 AM 3:20 PM
Waxing Crescent, 18% visible
METAR PANT 032353Z VRB05G17KT 5SM -SN FEW011 BKN017 OVC055 02/M01 A2988 RMK AO2 UPB46E47SNB03E16B47 SLP120 P0000 60000 T00221011 10056 20022 53005
Pressure 29.89 in
Visibility 5.0 miles
Clouds Few 1100 ft
Mostly Cloudy 1700 ft
Overcast 5500 ft
Windchill 31 °F
Dew Point 30 °F
Humidity 79%
Rainfall 0.01 in
Snow Depth Not available.
7:51 AM 3:20 PM
Waxing Crescent, 18% visible
METAR PANT 032353Z VRB05G17KT 5SM -SN FEW011 BKN017 OVC055 02/M01 A2988 RMK AO2 UPB46E47SNB03E16B47 SLP120 P0000 60000 T00221011 10056 20022 53005

10-Day Weather Forecast

Almanac

Astronomy

Dec. 03, 2016 Rise Set
Actual Time
Civil Twilight
Nautical Twilight
Astronomical Twilight
Moon
Length of Visible Light
Length of Day
Tomorrow will be .
, % of the Moon is Illuminated

Today's Extremes

State Highs State Lows

Community

WunderPhotos

Upload Photos

1,955,536 photos uploaded!

WunderBlog® & News

Nearby

Air Quality

  Air Quality AQ Index Pollutant
Not available.

Snow Depth

Station Depth Elevation

Earthquake Activity

City Distance Mag. Time & Date
Minimum magnitude displayed is 2.5.

Coastal Water Temperatures

Place Temperature

Stations

Nearby Weather Stations

Station Location Temp. Windchill Dew Point Humidity Wind Precip. Elev Updated Type
                   

Watches & Warnings

Winter Weather Advisory
Issued: 12:37 PM AKST Dec. 3, 2016 – National Weather Service

... Winter Weather Advisory remains in effect until 9 am akst
Sunday...

* location... eastern Gulf Coast... southeast Gulf Coast... and
portions of the central Inner Channels
including... Petersburg... Wrangell... Point
Baker... Kake... Sitka... Port Alexander... Port
Protection... Ketchikan... Metlakatla... Thorne Bay... Coffman
Cove... Saxman... Edna Bay... whale pass... Naukati Bay... and
Kasaan.

* Snow... 3 to 8 inches of snow.

* Timing... this afternoon through Sunday morning.

* Impacts... heavy snow will be difficult to manage. Roads will
become slick making travel hazardous as temperatures cool
through tonight. Visibility will be limited in heavier snow
showers.

Precautionary/preparedness actions...

An advisory means that a potentially hazardous event is already
occurring or imminent.

This statement will be updated by 8 PM akst Saturday or sooner if
conditions warrant.